Time;durP1;ratioP1;P1;durP2;ratioP2;P2;SDS_P1;SDS_P2;PMS_P1;PMS_P2;Temp;Humidity;BMP_temperature;BMP_pressure;BME280_temperature;BME280_humidity;BME280_pressure;Samples;Min_cycle;Max_cycle;Signal;HPM_P1;HPM_P2
2022/08/28 00:00:18;;;;;;;6.05;1.92;;;;;;;;;;5044508;28;20129;-62
2022/08/28 00:02:45;;;;;;;6.68;1.80;;;;;;;;;;5052786;28;20052;-62
2022/08/28 00:05:12;;;;;;;9.65;2.25;;;;;;;;;;5039247;28;20053;-63
2022/08/28 00:07:39;;;;;;;4.55;1.83;;;;;;;;;;5033551;28;20056;-63
2022/08/28 00:10:07;;;;;;;4.03;1.52;;;;;;;;;;5036305;28;20057;-62
2022/08/28 00:12:34;;;;;;;7.38;2.00;;;;;;;;;;5047922;28;20053;-63
2022/08/28 00:15:02;;;;;;;7.80;1.98;;;;;;;;;;5032410;28;20064;-63
2022/08/28 00:17:28;;;;;;;5.43;1.90;;;;;;;;;;5045286;28;20089;-62
2022/08/28 00:19:56;;;;;;;4.63;1.70;;;;;;;;;;5053147;28;20052;-64
2022/08/28 00:22:22;;;;;;;4.63;1.90;;;;;;;;;;5036464;28;20159;-62
2022/08/28 00:24:49;;;;;;;6.72;1.88;;;;;;;;;;5032969;28;20060;-62
2022/08/28 00:30:01;;;;;;;4.55;1.83;;;;;;;;;;5068911;28;20059;-62
2022/08/28 00:32:28;;;;;;;4.18;1.70;;;;;;;;;;5037289;28;20076;-63
2022/08/28 00:34:54;;;;;;;5.53;1.77;;;;;;;;;;5051580;28;20053;-62
2022/08/28 00:37:21;;;;;;;6.05;1.80;;;;;;;;;;5045986;28;20045;-63
2022/08/28 00:39:49;;;;;;;7.85;1.98;;;;;;;;;;5051983;28;20052;-63
2022/08/28 00:42:16;;;;;;;6.75;1.92;;;;;;;;;;5046201;28;20048;-64
2022/08/28 00:44:44;;;;;;;6.45;1.73;;;;;;;;;;5035865;28;20045;-63
2022/08/28 00:47:12;;;;;;;4.40;1.58;;;;;;;;;;5042124;28;20052;-62
2022/08/28 00:49:49;;;;;;;4.80;1.67;;;;;;;;;;5047472;28;20044;-62
2022/08/28 00:52:16;;;;;;;6.68;2.40;;;;;;;;;;5045286;28;20121;-63
2022/08/28 00:54:44;;;;;;;5.28;1.67;;;;;;;;;;5050982;28;20163;-63
2022/08/28 00:57:13;;;;;;;4.18;1.50;;;;;;;;;;5050946;28;20080;-63
2022/08/28 00:59:40;;;;;;;5.55;1.70;;;;;;;;;;5045511;28;20048;-63
2022/08/28 01:02:06;;;;;;;5.85;1.67;;;;;;;;;;5058189;28;20056;-64
2022/08/28 01:04:36;;;;;;;4.57;1.38;;;;;;;;;;5042672;28;20076;-63
2022/08/28 01:07:05;;;;;;;3.85;1.80;;;;;;;;;;5023126;28;20049;-63
2022/08/28 01:09:32;;;;;;;8.07;2.10;;;;;;;;;;5045247;28;20045;-63
2022/08/28 01:12:02;;;;;;;6.25;1.88;;;;;;;;;;5050569;28;20043;-64
2022/08/28 01:14:30;;;;;;;4.55;1.58;;;;;;;;;;5044612;28;20131;-63
2022/08/28 01:16:57;;;;;;;6.22;1.63;;;;;;;;;;5050723;28;20044;-61
2022/08/28 01:19:28;;;;;;;9.02;1.77;;;;;;;;;;5045970;28;20048;-64
2022/08/28 01:21:58;;;;;;;4.35;1.60;;;;;;;;;;5048736;28;20060;-62
2022/08/28 01:24:27;;;;;;;4.47;1.63;;;;;;;;;;5027632;28;20056;-64
2022/08/28 01:26:53;;;;;;;8.25;1.67;;;;;;;;;;5046892;28;20048;-63
2022/08/28 01:29:20;;;;;;;3.60;1.45;;;;;;;;;;5050317;28;20080;-62
2022/08/28 01:31:47;;;;;;;4.72;1.60;;;;;;;;;;5044223;28;20059;-63
2022/08/28 01:34:14;;;;;;;5.13;1.77;;;;;;;;;;5050599;28;20048;-64
2022/08/28 01:36:41;;;;;;;4.00;1.58;;;;;;;;;;5039739;28;20057;-62
2022/08/28 01:39:09;;;;;;;4.75;1.48;;;;;;;;;;5047563;28;20060;-62
2022/08/28 01:41:39;;;;;;;4.15;1.60;;;;;;;;;;5043903;28;20103;-64
2022/08/28 01:44:06;;;;;;;3.13;1.55;;;;;;;;;;5036829;28;20068;-63
2022/08/28 01:46:32;;;;;;;5.63;1.60;;;;;;;;;;5047724;28;20057;-64
2022/08/28 01:49:01;;;;;;;4.22;1.42;;;;;;;;;;5031378;28;20059;-62
2022/08/28 01:51:28;;;;;;;4.43;1.60;;;;;;;;;;5045002;28;20052;-63
2022/08/28 01:53:54;;;;;;;5.68;1.73;;;;;;;;;;5039213;28;20053;-62
2022/08/28 01:56:21;;;;;;;4.97;1.60;;;;;;;;;;5033731;28;20049;-62
2022/08/28 01:58:50;;;;;;;6.38;1.75;;;;;;;;;;5034955;28;20079;-62
2022/08/28 02:01:17;;;;;;;5.40;1.85;;;;;;;;;;5048154;28;20053;-62
2022/08/28 02:03:44;;;;;;;7.37;2.17;;;;;;;;;;5045980;28;20052;-63
2022/08/28 02:06:11;;;;;;;4.88;1.50;;;;;;;;;;5019716;28;20060;-62
2022/08/28 02:08:39;;;;;;;7.20;1.65;;;;;;;;;;5029726;28;20045;-63
2022/08/28 02:11:07;;;;;;;5.05;1.58;;;;;;;;;;5007380;28;20080;-61
2022/08/28 02:13:34;;;;;;;4.68;1.38;;;;;;;;;;5050656;28;20079;-63
2022/08/28 02:16:03;;;;;;;2.65;1.20;;;;;;;;;;5044777;28;20051;-62
2022/08/28 02:18:30;;;;;;;5.03;1.63;;;;;;;;;;5050508;28;20056;-64
2022/08/28 02:20:57;;;;;;;4.57;1.70;;;;;;;;;;5043602;28;20059;-64
2022/08/28 02:23:23;;;;;;;7.88;1.63;;;;;;;;;;5049209;28;20067;-62
2022/08/28 02:25:50;;;;;;;5.70;1.40;;;;;;;;;;5048251;28;20056;-62
2022/08/28 02:28:21;;;;;;;3.03;1.33;;;;;;;;;;5041719;28;20052;-62
2022/08/28 02:30:48;;;;;;;4.88;1.58;;;;;;;;;;5040582;28;20099;-62
2022/08/28 02:33:16;;;;;;;4.22;1.65;;;;;;;;;;5020359;28;20106;-62
2022/08/28 02:35:43;;;;;;;;;;;;;;;;;;5044690;28;20056;-63
2022/08/28 02:38:10;;;;;;;5.30;1.40;;;;;;;;;;5043178;28;20035;-62
2022/08/28 02:40:37;;;;;;;4.75;1.42;;;;;;;;;;5049427;28;20052;-63
2022/08/28 02:43:04;;;;;;;5.90;1.50;;;;;;;;;;5044572;28;20063;-62
2022/08/28 02:45:31;;;;;;;6.85;1.80;;;;;;;;;;5048467;28;20057;-62
2022/08/28 02:48:00;;;;;;;4.40;1.40;;;;;;;;;;5049019;28;20048;-63
2022/08/28 02:53:39;;;;;;;5.65;1.80;;;;;;;;;;5031394;28;20017;-62
2022/08/28 02:56:06;;;;;;;4.72;1.88;;;;;;;;;;5030986;28;20057;-63
2022/08/28 02:58:34;;;;;;;3.58;1.40;;;;;;;;;;5049494;28;20059;-64
2022/08/28 03:03:44;;;;;;;3.77;1.47;;;;;;;;;;5056878;23;20049;-62
2022/08/28 05:03:48;;;;;;;4.68;1.58;;;;;;;;;;4987614;26;20067;-63
2022/08/28 05:06:16;;;;;;;3.85;1.40;;;;;;;;;;4991903;28;20042;-64
2022/08/28 05:08:43;;;;;;;5.10;1.70;;;;;;;;;;5007781;28;20049;-64
2022/08/28 05:11:11;;;;;;;4.13;1.50;;;;;;;;;;4991939;28;20048;-64
2022/08/28 05:13:37;;;;;;;3.90;1.70;;;;;;;;;;5009190;28;20048;-64
2022/08/28 05:16:04;;;;;;;4.80;1.58;;;;;;;;;;5005982;28;20108;-64
2022/08/28 05:18:32;;;;;;;4.18;1.45;;;;;;;;;;5005631;28;20061;-64
2022/08/28 05:21:00;;;;;;;4.10;1.40;;;;;;;;;;5007865;28;20050;-64
2022/08/28 05:23:27;;;;;;;3.47;1.30;;;;;;;;;;5003948;28;20060;-64
2022/08/28 05:25:54;;;;;;;3.80;1.50;;;;;;;;;;4991317;28;20117;-64
2022/08/28 05:28:21;;;;;;;4.07;1.48;;;;;;;;;;5005135;28;28339;-63
2022/08/28 05:30:47;;;;;;;3.92;1.75;;;;;;;;;;5026653;28;20123;-64
2022/08/28 05:33:14;;;;;;;4.57;1.70;;;;;;;;;;5004071;28;20148;-64
2022/08/28 05:35:42;;;;;;;4.35;1.70;;;;;;;;;;4990166;28;20057;-63
2022/08/28 05:38:11;;;;;;;4.20;1.45;;;;;;;;;;5007900;28;20046;-64
2022/08/28 05:40:41;;;;;;;4.03;1.58;;;;;;;;;;4998161;28;20081;-64
2022/08/28 05:43:08;;;;;;;4.13;1.63;;;;;;;;;;5008729;28;20065;-64
2022/08/28 05:45:37;;;;;;;10.75;2.00;;;;;;;;;;5034591;28;20046;-65
2022/08/28 05:48:03;;;;;;;3.88;1.50;;;;;;;;;;5025134;28;20065;-63
2022/08/28 05:50:32;;;;;;;2.65;1.30;;;;;;;;;;5033724;28;20116;-63
2022/08/28 05:52:58;;;;;;;;;;;;;;;;;;4992689;28;20108;-63
2022/08/28 05:55:26;;;;;;;4.57;1.35;;;;;;;;;;5006696;28;19921;-64
2022/08/28 05:57:53;;;;;;;4.18;1.65;;;;;;;;;;5019195;28;20058;-64
2022/08/28 06:00:21;;;;;;;4.28;1.27;;;;;;;;;;5024619;28;20053;-63
2022/08/28 06:02:47;;;;;;;6.88;1.75;;;;;;;;;;5013889;28;20110;-63
2022/08/28 06:05:14;;;;;;;4.07;1.45;;;;;;;;;;5014900;28;20049;-62
2022/08/28 06:07:41;;;;;;;4.97;1.70;;;;;;;;;;5013218;28;20061;-63
2022/08/28 06:10:10;;;;;;;6.80;1.92;;;;;;;;;;4992107;28;20064;-63
2022/08/28 06:12:36;;;;;;;;;;;;;;;;;;5003236;28;20062;-64
2022/08/28 06:15:05;;;;;;;6.22;1.33;;;;;;;;;;4991690;28;19921;-64
2022/08/28 06:17:31;;;;;;;;;;;;;;;;;;4988951;28;20077;-64
2022/08/28 06:20:06;;;;;;;4.68;1.42;;;;;;;;;;5003464;28;20016;-64
2022/08/28 06:22:33;;;;;;;4.13;1.30;;;;;;;;;;5024490;28;20057;-64
2022/08/28 06:25:01;;;;;;;2.45;1.20;;;;;;;;;;5014230;28;20053;-63
2022/08/28 06:27:27;;;;;;;3.17;1.33;;;;;;;;;;5024564;28;20056;-63
2022/08/28 06:29:54;;;;;;;4.28;1.40;;;;;;;;;;5013230;28;20045;-63
2022/08/28 06:32:22;;;;;;;2.53;1.17;;;;;;;;;;5003859;28;20064;-62
2022/08/28 06:34:49;;;;;;;5.32;1.42;;;;;;;;;;5021933;28;20049;-63
2022/08/28 06:37:16;;;;;;;4.57;1.50;;;;;;;;;;5043859;28;20049;-63
2022/08/28 06:39:42;;;;;;;6.78;1.77;;;;;;;;;;5043797;28;20049;-63
2022/08/28 06:42:09;;;;;;;3.15;1.27;;;;;;;;;;5018730;28;20132;-63
2022/08/28 06:44:38;;;;;;;6.50;1.85;;;;;;;;;;5027588;28;20060;-64
2022/08/28 06:47:05;;;;;;;6.75;1.77;;;;;;;;;;5027438;28;20041;-62
2022/08/28 06:49:34;;;;;;;4.60;1.23;;;;;;;;;;5027927;28;20049;-63
2022/08/28 06:52:01;;;;;;;4.45;1.33;;;;;;;;;;5002576;28;20061;-62
2022/08/28 06:54:29;;;;;;;2.58;1.10;;;;;;;;;;5032071;28;20081;-63
2022/08/28 06:56:56;;;;;;;;;;;;;;;;;;5004101;28;20054;-64
2022/08/28 06:59:22;;;;;;;3.30;1.20;;;;;;;;;;5018690;28;19932;-63
2022/08/28 07:01:52;;;;;;;5.25;1.67;;;;;;;;;;5022694;28;20060;-64
2022/08/28 07:04:19;;;;;;;6.43;1.27;;;;;;;;;;5036550;28;20085;-64
2022/08/28 07:06:49;;;;;;;2.42;1.10;;;;;;;;;;5048075;28;20046;-63
2022/08/28 07:09:16;;;;;;;2.67;1.10;;;;;;;;;;5020703;28;20049;-64
2022/08/28 07:11:45;;;;;;;7.68;1.38;;;;;;;;;;5047382;28;20050;-63
2022/08/28 07:14:12;;;;;;;3.70;1.13;;;;;;;;;;5025632;28;20107;-64
2022/08/28 07:16:38;;;;;;;3.65;1.02;;;;;;;;;;5047272;28;20064;-63
2022/08/28 07:19:06;;;;;;;1.95;1.00;;;;;;;;;;5040335;28;20061;-63
2022/08/28 07:21:34;;;;;;;5.68;1.13;;;;;;;;;;5030332;28;20103;-62
2022/08/28 07:24:03;;;;;;;3.85;1.35;;;;;;;;;;5030056;28;20061;-62
2022/08/28 07:26:30;;;;;;;3.05;1.20;;;;;;;;;;5023312;28;20057;-61
2022/08/28 07:28:57;;;;;;;3.25;1.20;;;;;;;;;;5030733;28;20053;-63
2022/08/28 07:31:26;;;;;;;4.32;1.17;;;;;;;;;;5024762;28;20198;-63
2022/08/28 07:33:53;;;;;;;4.93;1.08;;;;;;;;;;5047888;28;20038;-64
2022/08/28 07:36:21;;;;;;;2.75;0.90;;;;;;;;;;5024836;28;20265;-64
2022/08/28 07:38:49;;;;;;;3.53;1.30;;;;;;;;;;5030739;28;20132;-64
2022/08/28 07:41:18;;;;;;;4.72;1.13;;;;;;;;;;5027803;28;20296;-64
2022/08/28 07:46:29;;;;;;;4.03;1.15;;;;;;;;;;5047644;28;20085;-63
2022/08/28 07:48:59;;;;;;;2.20;0.90;;;;;;;;;;5024146;28;20056;-64
2022/08/28 07:51:26;;;;;;;5.78;1.25;;;;;;;;;;5031287;28;20145;-64
2022/08/28 07:53:53;;;;;;;4.07;1.27;;;;;;;;;;5024784;28;20073;-65
2022/08/28 07:56:22;;;;;;;2.95;1.13;;;;;;;;;;5030416;28;20075;-62
2022/08/28 07:58:50;;;;;;;5.63;1.27;;;;;;;;;;5023566;28;20057;-64
2022/08/28 08:01:21;;;;;;;5.95;0.82;;;;;;;;;;5027026;28;20184;-64
2022/08/28 08:03:48;;;;;;;3.70;1.20;;;;;;;;;;5037146;28;20061;-63
2022/08/28 08:06:16;;;;;;;5.10;1.05;;;;;;;;;;5023857;28;20085;-64
2022/08/28 08:08:45;;;;;;;3.30;1.17;;;;;;;;;;5027900;28;20063;-64
2022/08/28 08:11:16;;;;;;;3.60;0.88;;;;;;;;;;5023016;28;20046;-64
2022/08/28 08:13:45;;;;;;;4.80;1.23;;;;;;;;;;5013390;28;20080;-64
2022/08/28 08:16:13;;;;;;;3.67;1.13;;;;;;;;;;5035991;28;20113;-64
2022/08/28 08:18:40;;;;;;;3.15;1.05;;;;;;;;;;5028402;28;20054;-64
2022/08/28 08:21:08;;;;;;;8.80;1.50;;;;;;;;;;5018664;28;20052;-63
2022/08/28 08:23:36;;;;;;;5.57;1.10;;;;;;;;;;5028633;28;20068;-62
2022/08/28 08:26:05;;;;;;;3.92;1.10;;;;;;;;;;5011591;28;20076;-65
2022/08/28 08:28:35;;;;;;;5.43;1.10;;;;;;;;;;5028513;28;20049;-64
2022/08/28 08:31:07;;;;;;;4.82;1.10;;;;;;;;;;5043474;28;20138;-63
2022/08/28 08:33:35;;;;;;;4.30;1.23;;;;;;;;;;5035956;28;20057;-64
2022/08/28 08:36:02;;;;;;;5.07;1.15;;;;;;;;;;5044643;28;20054;-63
2022/08/28 08:38:29;;;;;;;5.78;1.00;;;;;;;;;;5022654;28;20049;-64
2022/08/28 08:40:56;;;;;;;3.47;1.03;;;;;;;;;;5029017;28;20148;-64
2022/08/28 08:43:25;;;;;;;2.85;0.80;;;;;;;;;;5039103;28;20076;-64
2022/08/28 08:45:52;;;;;;;5.20;1.15;;;;;;;;;;5022616;28;20064;-65
2022/08/28 08:48:26;;;;;;;4.63;1.05;;;;;;;;;;5040843;28;20053;-63
2022/08/28 08:50:54;;;;;;;5.22;1.20;;;;;;;;;;5044792;28;20053;-62
2022/08/28 08:53:25;;;;;;;3.55;1.10;;;;;;;;;;5044946;28;20053;-64
2022/08/28 08:55:54;;;;;;;2.17;1.00;;;;;;;;;;5018975;28;20092;-63
2022/08/28 08:58:24;;;;;;;4.22;1.10;;;;;;;;;;5044838;28;20045;-63
2022/08/28 09:00:55;;;;;;;4.82;1.23;;;;;;;;;;5022989;28;20045;-62
2022/08/28 09:03:25;;;;;;;5.35;1.20;;;;;;;;;;5045072;28;20153;-61
2022/08/28 09:05:54;;;;;;;5.05;1.38;;;;;;;;;;5022665;28;20144;-62
2022/08/28 09:08:30;;;;;;;3.85;1.15;;;;;;;;;;5044458;28;20062;-62
2022/08/28 09:11:00;;;;;;;2.97;0.93;;;;;;;;;;5038811;28;20050;-62
2022/08/28 09:13:34;;;;;;;1.92;0.95;;;;;;;;;;5044510;28;20126;-62
2022/08/28 09:16:03;;;;;;;3.03;0.95;;;;;;;;;;5028350;28;20080;-61
2022/08/28 09:18:34;;;;;;;2.58;0.98;;;;;;;;;;5024125;28;20053;-62
2022/08/28 09:21:04;;;;;;;4.25;0.93;;;;;;;;;;5024113;28;20049;-62
2022/08/28 09:23:30;;;;;;;5.72;1.00;;;;;;;;;;5020949;28;20046;-63
2022/08/28 09:26:00;;;;;;;2.63;0.90;;;;;;;;;;5045815;28;20053;-62
2022/08/28 09:28:29;;;;;;;7.28;0.90;;;;;;;;;;5038984;28;20064;-61
2022/08/28 09:31:14;;;;;;;5.07;1.20;;;;;;;;;;5036603;28;20040;-62
2022/08/28 09:33:43;;;;;;;4.60;0.90;;;;;;;;;;5022014;28;20109;-65
2022/08/28 09:36:22;;;;;;;3.85;0.90;;;;;;;;;;5027146;28;20084;-63
2022/08/28 09:39:04;;;;;;;4.72;1.05;;;;;;;;;;5022341;28;20072;-62
2022/08/28 09:44:15;;;;;;;4.32;1.05;;;;;;;;;;5019300;28;20060;-62
2022/08/28 09:46:46;;;;;;;2.88;0.95;;;;;;;;;;5044769;28;20045;-63
2022/08/28 09:49:23;;;;;;;6.63;1.02;;;;;;;;;;5038672;28;20045;-63
2022/08/28 09:51:49;;;;;;;2.13;0.95;;;;;;;;;;5013602;28;20053;-61
2022/08/28 09:54:19;;;;;;;5.07;0.90;;;;;;;;;;5030062;28;20067;-61
2022/08/28 09:56:46;;;;;;;1.75;0.80;;;;;;;;;;5026327;28;20076;-61
2022/08/28 09:59:14;;;;;;;1.87;0.97;;;;;;;;;;5037383;28;20111;-61
2022/08/28 10:01:47;;;;;;;2.05;0.80;;;;;;;;;;5027222;28;20053;-61
2022/08/28 10:04:27;;;;;;;3.22;1.02;;;;;;;;;;5034439;28;20049;-62
2022/08/28 10:06:56;;;;;;;3.45;1.10;;;;;;;;;;5038484;28;20076;-63
2022/08/28 10:09:27;;;;;;;5.68;0.82;;;;;;;;;;5015483;28;20060;-63
2022/08/28 10:11:59;;;;;;;1.98;0.73;;;;;;;;;;5043460;28;20057;-61
2022/08/28 10:14:32;;;;;;;2.63;1.00;;;;;;;;;;5037118;28;20053;-62
2022/08/28 10:17:03;;;;;;;3.00;1.00;;;;;;;;;;5024988;28;20042;-63
2022/08/28 10:19:37;;;;;;;2.20;1.05;;;;;;;;;;5020006;28;20056;-62
2022/08/28 10:22:10;;;;;;;6.32;1.10;;;;;;;;;;5017509;28;20065;-62
2022/08/28 10:24:49;;;;;;;1.73;0.80;;;;;;;;;;5026815;28;20056;-62
2022/08/28 10:27:28;;;;;;;3.50;0.90;;;;;;;;;;5017671;28;20055;-62
2022/08/28 10:30:03;;;;;;;2.08;0.98;;;;;;;;;;5041886;28;20053;-60
2022/08/28 10:32:48;;;;;;;2.38;0.98;;;;;;;;;;5035082;28;20049;-62
2022/08/28 10:35:19;;;;;;;1.60;0.90;;;;;;;;;;5025309;28;20057;-61
2022/08/28 10:37:51;;;;;;;4.05;1.05;;;;;;;;;;5018245;28;20101;-63
2022/08/28 10:40:21;;;;;;;3.65;0.85;;;;;;;;;;5043211;28;20052;-63
2022/08/28 10:42:50;;;;;;;7.82;1.10;;;;;;;;;;5034542;28;20073;-63
2022/08/28 10:45:21;;;;;;;3.42;1.10;;;;;;;;;;5047535;28;20061;-61
2022/08/28 10:47:49;;;;;;;4.05;1.25;;;;;;;;;;5047521;28;20049;-62
2022/08/28 10:50:19;;;;;;;5.32;1.10;;;;;;;;;;5041168;28;20053;-62
2022/08/28 10:52:48;;;;;;;4.05;1.10;;;;;;;;;;5025269;28;20141;-63
2022/08/28 10:55:18;;;;;;;2.58;0.95;;;;;;;;;;5021589;28;20072;-62
2022/08/28 10:57:47;;;;;;;4.70;1.13;;;;;;;;;;5023112;28;20132;-62
2022/08/28 11:00:16;;;;;;;1.90;0.70;;;;;;;;;;5022972;28;20061;-63
2022/08/28 11:02:51;;;;;;;3.80;1.10;;;;;;;;;;5042632;28;20061;-63
2022/08/28 11:05:22;;;;;;;2.33;0.85;;;;;;;;;;5033916;28;20077;-62
2022/08/28 11:07:49;;;;;;;3.17;1.00;;;;;;;;;;5045497;28;20049;-62
2022/08/28 11:10:21;;;;;;;3.30;1.17;;;;;;;;;;5038871;28;20053;-62
2022/08/28 11:12:50;;;;;;;1.60;0.93;;;;;;;;;;5028371;28;20041;-64
2022/08/28 11:15:39;;;;;;;3.65;0.90;;;;;;;;;;5045886;28;20061;-61
2022/08/28 11:18:26;;;;;;;5.18;1.10;;;;;;;;;;5041816;28;20049;-62
2022/08/28 11:20:57;;;;;;;4.25;1.00;;;;;;;;;;5027240;28;20081;-62
2022/08/28 11:23:30;;;;;;;3.70;1.00;;;;;;;;;;5037723;28;20057;-63
2022/08/28 11:25:59;;;;;;;6.95;1.10;;;;;;;;;;5045141;28;20050;-64
2022/08/28 11:28:40;;;;;;;2.05;0.80;;;;;;;;;;5037214;28;20053;-63
2022/08/28 11:31:27;;;;;;;2.65;1.17;;;;;;;;;;5029185;28;20053;-61
2022/08/28 11:33:54;;;;;;;2.15;0.80;;;;;;;;;;5037167;28;20061;-60
2022/08/28 11:36:36;;;;;;;2.65;0.85;;;;;;;;;;5046628;28;20109;-62
2022/08/28 11:39:05;;;;;;;3.80;1.00;;;;;;;;;;5036660;28;20053;-60
2022/08/28 11:41:35;;;;;;;2.38;0.90;;;;;;;;;;5030290;28;20085;-62
2022/08/28 11:44:20;;;;;;;4.85;1.08;;;;;;;;;;5039069;28;20061;-63
2022/08/28 11:46:47;;;;;;;6.57;1.00;;;;;;;;;;5029902;28;20083;-62
2022/08/28 11:49:29;;;;;;;3.40;0.98;;;;;;;;;;5042818;28;20053;-61
2022/08/28 11:52:02;;;;;;;1.92;0.80;;;;;;;;;;5043243;28;20153;-61
2022/08/28 11:54:38;;;;;;;1.90;0.82;;;;;;;;;;5029407;28;20054;-61
2022/08/28 11:57:11;;;;;;;5.20;1.25;;;;;;;;;;5020812;28;20046;-61
2022/08/28 11:59:57;;;;;;;2.92;1.10;;;;;;;;;;5017767;28;20072;-63
2022/08/28 12:02:50;;;;;;;3.92;1.00;;;;;;;;;;5037944;28;20053;-61
2022/08/28 12:05:36;;;;;;;2.55;1.00;;;;;;;;;;5003395;28;20069;-62
2022/08/28 12:08:04;;;;;;;4.68;1.15;;;;;;;;;;5019518;28;20057;-64
2022/08/28 12:11:06;;;;;;;1.83;0.90;;;;;;;;;;5029156;28;20050;-62
2022/08/28 12:13:51;;;;;;;3.55;1.00;;;;;;;;;;5024123;28;20053;-62
2022/08/28 12:16:18;;;;;;;4.72;1.20;;;;;;;;;;5029958;28;20058;-61
2022/08/28 12:19:01;;;;;;;3.88;0.90;;;;;;;;;;5023874;28;20081;-62
2022/08/28 12:21:29;;;;;;;4.07;0.90;;;;;;;;;;5044575;28;20045;-62
2022/08/28 12:23:58;;;;;;;3.53;0.98;;;;;;;;;;5023843;28;20111;-62
2022/08/28 12:26:30;;;;;;;4.35;1.10;;;;;;;;;;5046561;28;20069;-63
2022/08/28 12:28:59;;;;;;;3.42;1.20;;;;;;;;;;5015608;28;20077;-62
2022/08/28 12:34:42;;;;;;;3.25;0.98;;;;;;;;;;5021525;28;20064;-63
2022/08/28 12:37:22;;;;;;;2.10;0.77;;;;;;;;;;5045660;28;20128;-62
2022/08/28 12:39:49;;;;;;;1.45;0.88;;;;;;;;;;5039851;28;20061;-61
2022/08/28 12:42:18;;;;;;;3.83;0.90;;;;;;;;;;5022449;28;20124;-61
2022/08/28 12:44:46;;;;;;;8.60;1.27;;;;;;;;;;5022584;28;20095;-62
2022/08/28 12:47:14;;;;;;;1.67;0.80;;;;;;;;;;5044574;28;20053;-62
2022/08/28 12:49:40;;;;;;;1.85;1.27;;;;;;;;;;5023424;28;20136;-62
2022/08/28 12:52:09;;;;;;;1.70;1.00;;;;;;;;;;5029038;28;20071;-62
2022/08/28 12:54:35;;;;;;;1.13;0.80;;;;;;;;;;5022793;28;20111;-63
2022/08/28 12:57:04;;;;;;;3.85;1.13;;;;;;;;;;5028664;28;20060;-61
2022/08/28 12:59:35;;;;;;;3.92;0.80;;;;;;;;;;5022445;28;20642;-62
2022/08/28 13:02:02;;;;;;;2.70;1.02;;;;;;;;;;5045247;28;20059;-62
2022/08/28 13:04:32;;;;;;;2.17;1.00;;;;;;;;;;5023463;28;20049;-61
2022/08/28 13:07:03;;;;;;;5.35;1.27;;;;;;;;;;5037178;28;20059;-61
2022/08/28 13:09:30;;;;;;;5.65;1.08;;;;;;;;;;5048228;28;20056;-61
2022/08/28 13:11:57;;;;;;;4.83;1.10;;;;;;;;;;5023132;28;20057;-60
2022/08/28 13:14:42;;;;;;;2.88;0.90;;;;;;;;;;5045041;28;20319;-62
2022/08/28 13:17:09;;;;;;;3.88;1.15;;;;;;;;;;5022044;28;20129;-61
2022/08/28 13:19:36;;;;;;;4.30;1.08;;;;;;;;;;5044311;28;20037;-63
2022/08/28 13:22:07;;;;;;;3.25;0.98;;;;;;;;;;5021815;28;20065;-64
2022/08/28 13:24:45;;;;;;;2.33;1.08;;;;;;;;;;5044625;28;20053;-62
2022/08/28 13:27:11;;;;;;;;;;;;;;;;;;5039192;28;20085;-60
2022/08/28 13:29:54;;;;;;;2.78;0.90;;;;;;;;;;5044501;28;19932;-62
2022/08/28 13:32:22;;;;;;;2.80;1.23;;;;;;;;;;5040094;28;20049;-60
2022/08/28 13:35:03;;;;;;;3.00;1.10;;;;;;;;;;5044628;28;20058;-62
2022/08/28 13:37:40;;;;;;;8.52;1.08;;;;;;;;;;5038243;28;20069;-60
2022/08/28 13:40:08;;;;;;;2.53;1.08;;;;;;;;;;5044400;28;20096;-64
2022/08/28 13:42:35;;;;;;;4.60;1.20;;;;;;;;;;5038715;28;20059;-61
2022/08/28 13:45:03;;;;;;;2.88;0.90;;;;;;;;;;5043979;28;20060;-63
2022/08/28 13:47:32;;;;;;;1.45;0.80;;;;;;;;;;5038436;28;20136;-61
2022/08/28 13:50:00;;;;;;;3.85;1.17;;;;;;;;;;5043929;28;20053;-63
2022/08/28 13:52:28;;;;;;;2.38;1.15;;;;;;;;;;5012587;28;20050;-61
2022/08/28 13:54:55;;;;;;;2.10;0.80;;;;;;;;;;5043638;28;20053;-62
2022/08/28 13:57:23;;;;;;;3.30;0.90;;;;;;;;;;5037730;28;20050;-62
2022/08/28 13:59:53;;;;;;;1.40;0.80;;;;;;;;;;5027777;28;20053;-61
2022/08/28 14:05:06;;;;;;;2.47;1.00;;;;;;;;;;5046798;28;20067;-63
2022/08/28 14:07:32;;;;;;;4.50;1.20;;;;;;;;;;5019852;28;20049;-61
2022/08/28 14:09:59;;;;;;;2.97;1.10;;;;;;;;;;5027588;28;20061;-63
2022/08/28 14:12:26;;;;;;;1.65;0.90;;;;;;;;;;5042079;28;20072;-62
2022/08/28 14:14:54;;;;;;;1.77;1.00;;;;;;;;;;5020845;28;20087;-61
2022/08/28 14:17:23;;;;;;;4.22;1.15;;;;;;;;;;5027191;28;20335;-64
2022/08/28 14:19:49;;;;;;;2.58;1.00;;;;;;;;;;5021824;28;20073;-63
2022/08/28 14:22:19;;;;;;;2.08;0.90;;;;;;;;;;5026288;28;20103;-63
2022/08/28 14:24:45;;;;;;;3.45;1.02;;;;;;;;;;5021442;28;20075;-63
2022/08/28 14:27:15;;;;;;;2.40;1.00;;;;;;;;;;5026205;28;20072;-61
2022/08/28 14:29:41;;;;;;;2.47;1.00;;;;;;;;;;5017025;28;20072;-64
2022/08/28 14:32:11;;;;;;;1.83;0.90;;;;;;;;;;5042881;28;20065;-62
2022/08/28 14:34:38;;;;;;;2.88;1.15;;;;;;;;;;5026940;28;20055;-64
2022/08/28 14:37:06;;;;;;;5.00;1.20;;;;;;;;;;5034179;28;20053;-63
2022/08/28 14:39:35;;;;;;;6.85;1.30;;;;;;;;;;5042896;28;20060;-64
2022/08/28 14:42:01;;;;;;;2.33;1.10;;;;;;;;;;5034428;28;20061;-64
2022/08/28 14:44:28;;;;;;;3.22;1.17;;;;;;;;;;5025465;28;20045;-64
2022/08/28 14:46:54;;;;;;;2.28;0.88;;;;;;;;;;5017739;28;20100;-63
2022/08/28 14:49:22;;;;;;;4.50;1.30;;;;;;;;;;5025810;28;20080;-65
2022/08/28 14:51:49;;;;;;;1.53;0.87;;;;;;;;;;5039745;28;20057;-64
2022/08/28 14:54:19;;;;;;;2.92;1.20;;;;;;;;;;5021406;28;20080;-64
2022/08/28 14:56:47;;;;;;;2.38;1.00;;;;;;;;;;5040973;28;20081;-64
2022/08/28 14:59:15;;;;;;;;;;;;;;;;;;5018190;28;20053;-64
2022/08/28 15:01:42;;;;;;;2.88;1.30;;;;;;;;;;5026760;28;19971;-62
2022/08/28 15:04:10;;;;;;;3.90;0.88;;;;;;;;;;5033841;28;20045;-64
2022/08/28 15:06:37;;;;;;;3.90;1.10;;;;;;;;;;5025680;28;20061;-64
2022/08/28 15:09:04;;;;;;;1.90;0.90;;;;;;;;;;5019911;28;20057;-63
2022/08/28 15:11:30;;;;;;;3.55;1.15;;;;;;;;;;5042574;28;20049;-64
2022/08/28 15:13:59;;;;;;;2.67;0.98;;;;;;;;;;5034086;28;20155;-64
2022/08/28 15:16:29;;;;;;;6.00;1.10;;;;;;;;;;5014407;28;20052;-64
2022/08/28 15:18:59;;;;;;;4.55;1.05;;;;;;;;;;5026251;28;20050;-65
2022/08/28 15:21:27;;;;;;;2.17;0.90;;;;;;;;;;5034114;28;20065;-64
2022/08/28 15:23:55;;;;;;;3.47;1.17;;;;;;;;;;5026175;28;20048;-64
2022/08/28 15:26:22;;;;;;;4.45;1.00;;;;;;;;;;5032661;28;20064;-64
2022/08/28 15:28:54;;;;;;;2.40;1.00;;;;;;;;;;5041513;28;20064;-63
2022/08/28 15:31:23;;;;;;;1.80;0.88;;;;;;;;;;5037653;28;20111;-62
2022/08/28 15:33:50;;;;;;;4.45;1.50;;;;;;;;;;5046268;28;20075;-64
2022/08/28 15:36:17;;;;;;;5.00;1.20;;;;;;;;;;5045291;28;20061;-64
2022/08/28 15:41:28;;;;;;;2.42;1.20;;;;;;;;;;5044786;28;20059;-63
2022/08/28 15:43:56;;;;;;;2.42;1.20;;;;;;;;;;5037856;28;20060;-63
2022/08/28 15:46:24;;;;;;;4.50;1.25;;;;;;;;;;5028344;28;20053;-63
2022/08/28 15:48:52;;;;;;;1.83;0.95;;;;;;;;;;5019717;28;20056;-64
2022/08/28 15:51:19;;;;;;;3.15;1.10;;;;;;;;;;5046294;28;20050;-65
2022/08/28 15:53:46;;;;;;;1.95;1.08;;;;;;;;;;5022513;28;20049;-63
2022/08/28 15:56:14;;;;;;;3.60;1.17;;;;;;;;;;5046331;28;20061;-62
2022/08/28 15:58:41;;;;;;;3.80;1.33;;;;;;;;;;5046391;28;20296;-62
2022/08/28 16:01:08;;;;;;;3.33;1.37;;;;;;;;;;5020739;28;20053;-65
2022/08/28 16:03:37;;;;;;;4.65;1.27;;;;;;;;;;5041809;28;20061;-64
2022/08/28 16:06:10;;;;;;;2.45;1.13;;;;;;;;;;5036766;28;20061;-64
2022/08/28 16:08:36;;;;;;;2.60;1.20;;;;;;;;;;5043875;28;20049;-64
2022/08/28 16:11:03;;;;;;;2.83;0.93;;;;;;;;;;5021848;28;20156;-64
2022/08/28 16:13:30;;;;;;;5.57;1.40;;;;;;;;;;5046021;28;20153;-64
2022/08/28 16:15:56;;;;;;;7.55;1.30;;;;;;;;;;5036271;28;20051;-64
2022/08/28 16:18:23;;;;;;;4.90;1.20;;;;;;;;;;5045535;28;20045;-65
2022/08/28 16:20:51;;;;;;;2.90;1.10;;;;;;;;;;5043904;28;20050;-62
2022/08/28 16:23:17;;;;;;;4.57;1.45;;;;;;;;;;5023887;28;20056;-63
2022/08/28 16:25:44;;;;;;;14.32;8.55;;;;;;;;;;5045634;28;20135;-64
2022/08/28 16:28:11;;;;;;;23.88;15.85;;;;;;;;;;5036826;28;20141;-64
2022/08/28 16:30:39;;;;;;;27.25;13.18;;;;;;;;;;5028766;28;20057;-65
2022/08/28 16:33:06;;;;;;;19.98;11.27;;;;;;;;;;5037651;28;20111;-64
2022/08/28 16:35:33;;;;;;;16.67;8.35;;;;;;;;;;5044993;28;20055;-64
2022/08/28 16:38:02;;;;;;;22.35;9.70;;;;;;;;;;5039044;28;20064;-66
2022/08/28 16:40:28;;;;;;;12.95;7.07;;;;;;;;;;5042583;28;20053;-62
2022/08/28 16:42:55;;;;;;;15.57;8.85;;;;;;;;;;5028580;28;20061;-63
2022/08/28 16:45:22;;;;;;;10.68;5.07;;;;;;;;;;5036959;28;20058;-62
2022/08/28 16:47:49;;;;;;;15.80;5.90;;;;;;;;;;5045212;28;20109;-65
2022/08/28 16:50:16;;;;;;;12.35;6.93;;;;;;;;;;5036941;28;20053;-64
2022/08/28 16:52:42;;;;;;;13.35;7.13;;;;;;;;;;5028738;28;20053;-65
2022/08/28 16:55:11;;;;;;;9.05;3.53;;;;;;;;;;5019345;28;20046;-61
2022/08/28 16:57:38;;;;;;;10.77;5.50;;;;;;;;;;5027604;28;20049;-64
2022/08/28 17:00:06;;;;;;;10.95;4.20;;;;;;;;;;5024663;28;20060;-63
2022/08/28 17:02:33;;;;;;;8.18;3.05;;;;;;;;;;5038151;28;20056;-64
2022/08/28 17:05:00;;;;;;;7.90;4.15;;;;;;;;;;5043116;28;20060;-61
2022/08/28 17:07:29;;;;;;;4.22;1.85;;;;;;;;;;5017549;28;20057;-64
2022/08/28 17:09:55;;;;;;;5.63;2.83;;;;;;;;;;5044868;28;20050;-62
2022/08/28 17:12:24;;;;;;;4.90;2.28;;;;;;;;;;5034267;28;20068;-65
2022/08/28 17:14:50;;;;;;;;;;;;;;;;;;5044086;28;20050;-63
2022/08/28 17:17:17;;;;;;;8.00;2.88;;;;;;;;;;5021000;28;19929;-63